Terminal Aerodrome Forecast
Issued by NWS

Home | Current Version | Previous Version | Text Only | Print | Product List | Glossary Off
Versions: 1 2 3 4 5 6 7 8 9 10 11 12 13

000
FTUS43 KTOP 232200 AAA
TAFMHK
TAF AMD
KMHK 232204Z 2322/2418 31011KT P6SM BKN025
      TEMPO 2322/2401 6SM -SNRA SCT008 BKN015
     FM240100 34012KT 3SM -SN BR OVC008=

USA.gov is the U.S. government's official web portal to all federal, state and local government web resources and services.